Point Hope, AK

8:59 AM AKST on December 06, 2016 (GMT -0900)
Point Hope | | Change Station

Elev 13 ft 68.35 °N, 166.80 °W | Updated 3 minutes ago

Clear
Clear
-1 °F
Feels Like -17 °F
N
10
Wind Variable Wind from East

Today
High -- | Low -- °F
--% Chance of Precip.
Yesterday
High -- | Low -- °F
Precip. -- in
Pressure 30.67 in
Visibility 10.0 miles
Clouds Clear
Windchill -17 °F
Dew Point -11 °F
Humidity 62%
Rainfall 0.00 in
Snow Depth Not available.
1:26 PM 2:31 PM
Waxing Crescent, 43% visible
METAR PAPO 061756Z AUTO 09009KT 10SM CLR M18/M24 A3067 RMK AO2 SLP386 T11831239 11139 21206 53008 FZRANO
Pressure 30.67 in
Visibility 10.0 miles
Clouds Clear
Windchill -17 °F
Dew Point -11 °F
Humidity 62%
Rainfall 0.00 in
Snow Depth Not available.
1:26 PM 2:31 PM
Waxing Crescent, 43% visible
METAR PAPO 061756Z AUTO 09009KT 10SM CLR M18/M24 A3067 RMK AO2 SLP386 T11831239 11139 21206 53008 FZRANO

10-Day Weather Forecast

Almanac

Astronomy

Dec. 06, 2016 Rise Set
Actual Time
Civil Twilight
Nautical Twilight
Astronomical Twilight
Moon
Length of Visible Light
Length of Day
Tomorrow will be .
, % of the Moon is Illuminated

Today's Extremes

State Highs State Lows

Community

WunderPhotos

Upload Photos

1,955,986 photos uploaded!

WunderBlog® & News

Nearby

Air Quality

  Air Quality AQ Index Pollutant
Not available.

Snow Depth

Station Depth Elevation

Earthquake Activity

City Distance Mag. Time & Date
Minimum magnitude displayed is 2.5.

Coastal Water Temperatures

Place Temperature

Stations

Nearby Weather Stations

Station Location Temp. Windchill Dew Point Humidity Wind Precip. Elev Updated Type
                   

Watches & Warnings

There are currently no watches in effect.